Time;durP1;ratioP1;P1;durP2;ratioP2;P2;SDS_P1;SDS_P2;PMS_P1;PMS_P2;Temp;Humidity;BMP_temperature;BMP_pressure;BME280_temperature;BME280_humidity;BME280_pressure;Samples;Min_cycle;Max_cycle;Signal;HPM_P1;HPM_P2
2022/10/04 00:02:14;;;;;;;5.80;1.80;;;;;;;10.57;100.00;100114.56;4431003;32;35008;-76
2022/10/04 00:05:08;;;;;;;7.22;1.95;;;;;;;10.13;100.00;100119.31;4431714;32;33708;-75
2022/10/04 00:07:57;;;;;;;6.18;1.85;;;;;;;10.06;100.00;100124.31;4429094;32;33798;-75
2022/10/04 00:10:43;;;;;;;6.50;2.00;;;;;;;10.01;100.00;100126.31;4431675;32;33797;-75
2022/10/04 00:13:33;;;;;;;6.75;2.00;;;;;;;10.22;100.00;100130.41;4433383;32;34038;-74
2022/10/04 00:16:32;;;;;;;7.62;2.00;;;;;;;10.16;100.00;100128.03;4434717;32;35260;-75
2022/10/04 00:19:18;;;;;;;7.55;2.10;;;;;;;10.09;100.00;100123.72;4432716;32;33243;-76
2022/10/04 00:22:07;;;;;;;5.35;2.10;;;;;;;10.39;100.00;100121.69;4433700;32;33516;-76
2022/10/04 00:25:05;;;;;;;5.78;2.08;;;;;;;10.39;100.00;100115.37;4434921;32;34095;-76
2022/10/04 00:28:34;;;;;;;5.37;1.92;;;;;;;10.29;100.00;100127.31;4433477;32;33807;-75
2022/10/04 00:31:25;;;;;;;5.68;1.90;;;;;;;10.33;100.00;100122.84;4433431;32;34148;-76
2022/10/04 00:34:11;;;;;;;6.70;2.10;;;;;;;10.21;100.00;100125.22;4433144;32;34750;-75
2022/10/04 00:36:57;;;;;;;5.82;2.28;;;;;;;10.38;100.00;100119.25;4434487;32;33752;-76
2022/10/04 00:39:46;;;;;;;6.57;2.20;;;;;;;10.05;100.00;100116.44;4432842;32;33766;-75
2022/10/04 00:42:40;;;;;;;6.65;2.30;;;;;;;10.29;100.00;100122.66;4433179;32;34331;-75
2022/10/04 00:45:32;;;;;;;5.30;2.10;;;;;;;9.97;100.00;100112.41;4422203;32;33376;-75
2022/10/04 00:48:40;;;;;;;5.97;2.00;;;;;;;10.24;100.00;100114.47;4430883;32;35067;-75
2022/10/04 00:51:30;;;;;;;6.20;1.85;;;;;;;10.42;100.00;100106.59;4432598;32;33889;-74
2022/10/04 00:54:26;;;;;;;6.95;2.00;;;;;;;10.37;100.00;100106.66;4420283;32;33257;-76
2022/10/04 00:57:20;;;;;;;7.18;2.20;;;;;;;10.08;100.00;100110.34;4433563;32;33342;-75
2022/10/04 01:00:11;;;;;;;7.07;2.12;;;;;;;10.47;100.00;100095.53;4427356;32;33583;-75
2022/10/04 01:03:02;;;;;;;5.57;2.03;;;;;;;10.23;100.00;100104.63;4421555;32;33759;-76
2022/10/04 01:05:52;;;;;;;7.65;2.15;;;;;;;10.10;100.00;100110.84;4429863;32;34261;-75
2022/10/04 01:08:47;;;;;;;8.73;2.60;;;;;;;9.82;100.00;100110.72;4430023;32;33919;-74
2022/10/04 01:11:41;;;;;;;6.57;2.10;;;;;;;9.58;100.00;100108.00;4431877;32;34177;-76
2022/10/04 01:14:40;;;;;;;7.57;2.10;;;;;;;9.53;100.00;100105.31;4419275;32;33925;-75
2022/10/04 01:17:26;;;;;;;5.78;2.15;;;;;;;9.89;100.00;100108.41;4431872;32;32796;-76
2022/10/04 01:20:47;;;;;;;6.25;2.25;;;;;;;9.39;100.00;100101.66;4433227;32;33533;-76
2022/10/04 01:23:41;;;;;;;6.57;2.55;;;;;;;9.19;100.00;100094.50;4422813;32;34114;-77
2022/10/04 01:26:33;;;;;;;5.72;2.20;;;;;;;9.15;100.00;100093.47;4434468;32;33486;-76
2022/10/04 01:29:26;;;;;;;9.45;2.60;;;;;;;9.52;100.00;100086.47;4433697;32;33048;-77
2022/10/04 01:32:13;;;;;;;7.68;2.40;;;;;;;9.79;100.00;100096.78;4430934;32;33492;-76
2022/10/04 01:34:59;;;;;;;6.57;2.47;;;;;;;9.88;100.00;100092.28;4433987;32;34099;-76
2022/10/04 01:37:45;;;;;;;6.10;2.00;;;;;;;9.80;100.00;100104.72;4430843;32;34767;-76
2022/10/04 01:40:32;;;;;;;5.22;2.35;;;;;;;9.78;100.00;100090.50;4432016;32;32974;-75
2022/10/04 01:43:23;;;;;;;5.78;2.15;;;;;;;9.43;100.00;100094.53;4432745;32;33891;-76
2022/10/04 01:46:12;;;;;;;6.95;2.42;;;;;;;9.16;100.00;100095.09;4432498;32;34579;-76
2022/10/04 01:49:02;;;;;;;8.18;2.45;;;;;;;9.35;100.00;100095.97;4432216;32;33891;-76
2022/10/04 01:51:56;;;;;;;5.65;2.30;;;;;;;9.35;100.00;100098.69;4430116;32;33307;-76
2022/10/04 01:54:47;;;;;;;6.87;2.50;;;;;;;9.32;100.00;100109.41;4432247;32;33766;-76
2022/10/04 01:57:41;;;;;;;7.18;2.47;;;;;;;9.29;100.00;100110.00;4432350;32;33667;-76
2022/10/04 02:00:29;;;;;;;6.43;2.40;;;;;;;9.30;100.00;100109.69;4421377;32;34621;-76
2022/10/04 02:03:19;;;;;;;5.68;2.30;;;;;;;9.44;100.00;100107.06;4431518;32;33023;-75
2022/10/04 02:06:08;;;;;;;6.68;2.53;;;;;;;9.63;100.00;100104.41;4425597;32;33796;-76
2022/10/04 02:08:56;;;;;;;6.78;2.70;;;;;;;9.23;100.00;100103.78;4421234;32;34699;-76
2022/10/04 02:11:43;;;;;;;7.95;3.22;;;;;;;9.20;100.00;100105.16;4433994;32;33698;-76
2022/10/04 02:14:34;;;;;;;9.40;2.67;;;;;;;9.14;100.00;100109.06;4432969;32;33168;-77
2022/10/04 02:17:22;;;;;;;9.15;2.40;;;;;;;9.29;100.00;100104.53;4431991;32;33798;-76
2022/10/04 02:20:16;;;;;;;4.62;2.30;;;;;;;9.07;100.00;100118.69;4431243;32;35080;-77
2022/10/04 02:23:02;;;;;;;5.97;2.70;;;;;;;9.16;100.00;100106.03;4431356;32;33688;-77
2022/10/04 02:25:48;;;;;;;6.43;2.45;;;;;;;9.50;100.00;100110.56;4433706;32;34152;-76
2022/10/04 02:28:35;;;;;;;9.07;2.90;;;;;;;9.06;100.00;100114.34;4431288;32;33708;-76
2022/10/04 02:34:28;;;;;;;8.40;2.73;;;;;;;8.93;100.00;100113.91;4432837;32;34038;-75
2022/10/04 02:37:17;;;;;;;7.90;2.60;;;;;;;8.81;100.00;100113.50;4432498;32;33429;-76
2022/10/04 02:40:16;;;;;;;5.45;2.50;;;;;;;8.83;100.00;100114.03;4431567;32;34756;-75
2022/10/04 02:43:08;;;;;;;7.70;2.80;;;;;;;8.91;100.00;100116.13;4433000;32;34125;-77
2022/10/04 02:46:03;;;;;;;6.07;2.50;;;;;;;9.13;100.00;100121.09;4431323;32;33746;-76
2022/10/04 02:48:57;;;;;;;6.05;2.70;;;;;;;9.38;100.00;100114.53;4430545;32;34758;-76
2022/10/04 02:52:00;;;;;;;7.50;2.70;;;;;;;9.23;100.00;100118.25;4431611;32;34674;-76
2022/10/04 02:55:11;;;;;;;7.30;2.60;;;;;;;9.21;100.00;100115.00;4431705;32;34067;-76
2022/10/04 02:57:57;;;;;;;5.63;2.50;;;;;;;8.94;100.00;100115.56;4432503;32;33797;-75
2022/10/04 03:01:04;;;;;;;5.40;2.33;;;;;;;8.76;100.00;100111.59;4431342;32;33503;-76
2022/10/04 03:03:51;;;;;;;6.50;2.30;;;;;;;8.83;100.00;100111.28;4431908;32;33773;-76
2022/10/04 03:06:38;;;;;;;7.30;2.60;;;;;;;8.91;100.00;100112.59;4429195;32;33542;-76
2022/10/04 03:09:24;;;;;;;5.85;2.70;;;;;;;8.98;100.00;100113.06;4431841;32;33785;-77
2022/10/04 03:12:15;;;;;;;5.90;2.50;;;;;;;9.11;100.00;100106.91;4431005;32;33461;-77
2022/10/04 03:15:01;;;;;;;7.82;2.55;;;;;;;8.93;100.00;100115.84;4432435;32;33645;-76
2022/10/04 03:17:49;;;;;;;4.45;2.12;;;;;;;9.57;100.00;100105.56;4430326;32;34205;-77
2022/10/04 03:20:38;;;;;;;4.07;1.98;;;;;;;9.10;100.00;100112.66;4431617;32;34797;-75
2022/10/04 03:23:25;;;;;;;7.57;2.30;;;;;;;9.18;100.00;100115.56;4430478;32;33025;-76
2022/10/04 03:26:35;;;;;;;6.22;2.30;;;;;;;9.20;100.00;100107.09;4432352;32;33900;-76
2022/10/04 03:29:24;;;;;;;5.85;2.30;;;;;;;9.41;100.00;100111.22;4429655;32;34185;-77
2022/10/04 03:32:13;;;;;;;6.60;2.45;;;;;;;9.02;100.00;100114.09;4429116;32;33934;-76
2022/10/04 03:35:03;;;;;;;5.05;2.12;;;;;;;9.11;100.00;100125.25;4431541;32;34410;-76
2022/10/04 03:37:49;;;;;;;5.40;2.25;;;;;;;9.08;100.00;100120.31;4429483;32;34362;-77
2022/10/04 03:40:37;;;;;;;5.80;2.45;;;;;;;9.06;100.00;100122.56;4429140;32;33657;-76
2022/10/04 03:43:37;;;;;;;7.50;2.62;;;;;;;8.80;100.00;100119.25;4429298;32;34032;-77
2022/10/04 03:46:24;;;;;;;6.28;2.40;;;;;;;8.63;100.00;100119.69;4432364;32;32977;-77
2022/10/04 03:49:16;;;;;;;6.70;2.58;;;;;;;8.44;100.00;100123.09;4435569;32;33488;-76
2022/10/04 03:52:03;;;;;;;6.45;2.85;;;;;;;8.40;100.00;100124.78;4422244;32;35171;-77
2022/10/04 03:54:52;;;;;;;6.43;2.42;;;;;;;8.61;100.00;100117.22;4434512;32;33370;-76
2022/10/04 03:57:38;;;;;;;6.68;2.67;;;;;;;8.60;100.00;100121.06;4436101;32;34239;-76
2022/10/04 04:00:24;;;;;;;8.23;2.75;;;;;;;8.36;100.00;100117.38;4435342;32;34706;-76
2022/10/04 04:03:15;;;;;;;7.20;2.80;;;;;;;8.72;100.00;100117.94;4436742;32;34053;-76
2022/10/04 04:06:05;;;;;;;6.57;2.50;;;;;;;8.62;100.00;100121.56;4434306;32;33403;-76
2022/10/04 04:08:53;;;;;;;7.37;2.40;;;;;;;8.75;100.00;100112.72;4435137;32;32799;-76
2022/10/04 04:11:39;;;;;;;7.32;2.67;;;;;;;8.49;100.00;100119.50;4435782;32;33652;-77
2022/10/04 04:14:26;;;;;;;6.15;2.67;;;;;;;8.74;100.00;100123.94;4435586;32;34220;-76
2022/10/04 04:17:28;;;;;;;7.07;2.80;;;;;;;8.85;100.00;100117.28;4434970;32;34651;-76
2022/10/04 04:20:35;;;;;;;8.98;2.60;;;;;;;8.83;100.00;100114.03;4432466;32;32937;-76
2022/10/04 04:23:31;;;;;;;7.00;2.60;;;;;;;8.39;100.00;100125.03;4433897;32;34754;-76
2022/10/04 04:26:24;;;;;;;7.00;2.90;;;;;;;8.39;100.00;100123.13;4435092;32;33649;-76
2022/10/04 04:29:25;;;;;;;6.53;2.43;;;;;;;8.54;100.00;100131.22;4436610;32;34014;-76
2022/10/04 04:32:22;;;;;;;9.32;2.70;;;;;;;8.66;100.00;100132.75;4432116;32;34078;-75
2022/10/04 04:35:30;;;;;;;7.28;2.55;;;;;;;8.59;100.00;100141.25;4422775;32;34668;-77
2022/10/04 04:38:21;;;;;;;7.93;2.70;;;;;;;8.55;100.00;100146.47;4433262;32;35159;-76
2022/10/04 04:41:09;;;;;;;6.57;2.80;;;;;;;8.52;100.00;100149.78;4424769;32;33487;-77
2022/10/04 04:43:57;;;;;;;8.77;2.85;;;;;;;8.56;100.00;100147.28;4436324;32;34306;-77
2022/10/04 04:46:45;;;;;;;4.72;2.40;;;;;;;8.70;100.00;100153.75;4435016;32;33409;-77
2022/10/04 04:49:32;;;;;;;6.18;2.25;;;;;;;8.74;100.00;100156.75;4435025;32;34690;-77
2022/10/04 04:52:21;;;;;;;8.23;2.85;;;;;;;8.93;100.00;100151.34;4422374;32;179532;-77
2022/10/04 04:55:17;;;;;;;8.35;2.83;;;;;;;8.64;100.00;100149.41;4423227;32;33312;-77
2022/10/04 04:58:04;;;;;;;6.82;2.67;;;;;;;8.53;100.00;100147.88;4420924;32;33707;-76
2022/10/04 05:00:58;;;;;;;7.87;3.10;;;;;;;8.65;100.00;100152.97;4421373;32;35038;-77
2022/10/04 05:03:58;;;;;;;7.45;2.92;;;;;;;8.79;100.00;100159.41;4432917;32;33714;-77
2022/10/04 05:06:48;;;;;;;6.32;2.90;;;;;;;8.53;100.00;100165.06;4432418;32;33913;-77
2022/10/04 05:09:37;;;;;;;7.37;3.00;;;;;;;8.70;100.00;100164.66;4431966;32;34647;-77
2022/10/04 05:12:23;;;;;;;10.38;3.67;;;;;;;8.47;100.00;100162.66;4432113;32;36225;-77
2022/10/04 05:15:09;;;;;;;6.47;2.92;;;;;;;8.59;100.00;100175.97;4432262;32;35206;-77
2022/10/04 05:17:56;;;;;;;6.65;2.90;;;;;;;8.87;100.00;100171.66;4431801;32;33329;-77
2022/10/04 05:20:47;;;;;;;8.07;2.85;;;;;;;8.75;100.00;100177.47;4431688;32;33727;-76
2022/10/04 05:23:34;;;;;;;6.28;2.72;;;;;;;8.54;100.00;100182.28;4432250;32;35142;-77
2022/10/04 05:26:28;;;;;;;7.37;3.50;;;;;;;8.74;100.00;100181.31;4431566;32;34768;-77
2022/10/04 05:29:17;;;;;;;11.18;3.90;;;;;;;8.97;100.00;100183.31;4430735;32;33016;-77
2022/10/04 05:32:09;;;;;;;9.85;3.90;;;;;;;8.89;100.00;100183.91;4431060;32;33666;-77
2022/10/04 05:34:56;;;;;;;11.05;3.97;;;;;;;8.67;100.00;100187.09;4432054;32;34140;-77
2022/10/04 05:38:01;;;;;;;7.80;3.55;;;;;;;8.71;100.00;100198.28;4431353;32;34382;-77
2022/10/04 05:40:58;;;;;;;7.93;3.42;;;;;;;8.77;100.00;100203.41;4432739;32;33334;-77
2022/10/04 05:43:46;;;;;;;10.75;4.12;;;;;;;8.86;100.00;100198.16;4432348;32;33771;-77
2022/10/04 05:46:33;;;;;;;8.25;3.70;;;;;;;9.42;100.00;100208.59;4431130;32;34115;-77
2022/10/04 05:49:21;;;;;;;8.18;3.87;;;;;;;9.55;100.00;100206.25;4431566;32;33647;-77
2022/10/04 05:52:14;;;;;;;8.43;4.00;;;;;;;9.14;100.00;100209.41;4429426;32;32933;-77
2022/10/04 05:55:31;;;;;;;8.68;4.18;;;;;;;9.53;100.00;100198.31;4431342;32;34689;-77
2022/10/04 05:58:20;;;;;;;7.85;3.80;;;;;;;9.01;100.00;100208.12;4432230;32;33657;-77
2022/10/04 06:01:16;;;;;;;7.80;3.60;;;;;;;9.31;100.00;100201.59;4429776;32;34210;-77
2022/10/04 06:04:43;;;;;;;8.65;3.80;;;;;;;9.82;100.00;100211.97;4432835;32;33637;-77
2022/10/04 06:07:42;;;;;;;9.95;3.92;;;;;;;9.70;100.00;100222.50;4429736;32;33785;-76
2022/10/04 06:10:56;;;;;;;7.62;3.12;;;;;;;9.29;100.00;100225.66;4432054;32;34181;-76
2022/10/04 06:13:58;;;;;;;7.30;3.20;;;;;;;9.71;100.00;100226.87;4432275;32;34598;-78
2022/10/04 06:17:03;;;;;;;5.90;2.83;;;;;;;10.08;100.00;100226.16;4431544;32;32933;-77
2022/10/04 06:20:00;;;;;;;8.07;3.20;;;;;;;10.09;100.00;100235.19;4429356;32;34095;-77
2022/10/04 06:22:48;;;;;;;6.85;2.95;;;;;;;10.19;100.00;100240.53;4429139;32;34151;-77
2022/10/04 06:25:42;;;;;;;7.87;2.90;;;;;;;10.21;100.00;100241.03;4431175;32;33845;-77
2022/10/04 06:28:35;;;;;;;7.82;3.05;;;;;;;10.58;100.00;100234.00;4432632;32;34526;-77
2022/10/04 06:31:43;;;;;;;9.03;3.07;;;;;;;10.35;100.00;100244.72;4421108;32;33819;-77
2022/10/04 06:34:44;;;;;;;8.00;3.40;;;;;;;10.21;100.00;100246.53;4420807;32;34010;-77
2022/10/04 06:38:02;;;;;;;8.13;3.30;;;;;;;10.57;100.00;100248.81;4431659;32;33668;-77
2022/10/04 06:41:00;;;;;;;8.45;3.53;;;;;;;10.40;100.00;100243.84;4432810;32;32023;-77
2022/10/04 06:44:11;;;;;;;6.80;3.30;;;;;;;10.40;100.00;100249.31;4431464;32;33769;-77
2022/10/04 06:48:08;;;;;;;7.93;3.55;;;;;;;10.60;100.00;100250.97;4442511;32;34173;-77
2022/10/04 06:51:00;;;;;;;6.30;3.10;;;;;;;10.41;100.00;100263.84;4366743;32;33791;-77
2022/10/04 06:54:11;;;;;;;8.23;3.30;;;;;;;10.98;100.00;100262.72;4398316;32;33248;-77
2022/10/04 06:57:17;;;;;;;6.95;3.50;;;;;;;11.24;100.00;100256.81;4430321;32;33843;-77
2022/10/04 07:00:25;;;;;;;8.90;3.30;;;;;;;10.91;100.00;100258.75;4432873;32;33765;-76
2022/10/04 07:03:14;;;;;;;6.25;3.60;;;;;;;11.13;100.00;100258.13;4430520;32;33807;-76
2022/10/04 07:06:06;;;;;;;6.70;3.20;;;;;;;10.58;100.00;100264.13;4427332;32;34241;-78
2022/10/04 07:08:58;;;;;;;6.40;3.15;;;;;;;10.78;100.00;100263.03;4421806;32;33416;-78
2022/10/04 07:11:58;;;;;;;7.63;3.80;;;;;;;11.26;100.00;100262.81;4419478;32;33747;-78
2022/10/04 07:14:49;;;;;;;6.28;3.35;;;;;;;11.18;100.00;100264.31;4419636;32;33658;-78
2022/10/04 07:17:39;;;;;;;6.70;3.08;;;;;;;11.00;100.00;100271.47;4417397;32;32964;-78
2022/10/04 07:20:30;;;;;;;6.00;3.03;;;;;;;11.02;100.00;100269.25;4421098;32;34237;-76
2022/10/04 07:23:50;;;;;;;6.22;2.72;;;;;;;11.02;100.00;100279.41;4429116;32;34694;-78
2022/10/04 07:26:44;;;;;;;4.62;2.83;;;;;;;11.30;100.00;100283.06;4425973;32;33623;-78
2022/10/04 07:29:34;;;;;;;6.97;2.60;;;;;;;11.52;100.00;100276.91;4420838;32;33431;-79
2022/10/04 07:32:28;;;;;;;6.45;2.50;;;;;;;12.10;100.00;100268.16;4410413;32;32573;-77
2022/10/04 07:35:31;;;;;;;5.50;2.50;;;;;;;11.77;100.00;100269.34;4417843;32;32951;-78
2022/10/04 07:38:28;;;;;;;5.68;2.50;;;;;;;11.59;100.00;100273.78;4418806;32;34266;-77
2022/10/04 07:41:30;;;;;;;7.07;2.63;;;;;;;11.89;100.00;100267.72;4420515;32;33037;-78
2022/10/04 07:44:38;;;;;;;6.18;2.33;;;;;;;11.75;100.00;100277.03;4421613;32;33350;-78
2022/10/04 07:47:26;;;;;;;6.32;1.95;;;;;;;11.80;100.00;100275.03;4430072;32;34011;-78
2022/10/04 07:50:39;;;;;;;3.90;1.80;;;;;;;11.73;100.00;100273.81;4422463;32;33686;-79
2022/10/04 07:53:36;;;;;;;5.28;1.95;;;;;;;12.13;100.00;100269.47;4421265;32;34054;-78
2022/10/04 07:56:33;;;;;;;8.73;4.55;;;;;;;12.30;100.00;100271.63;4417352;32;34776;-78
2022/10/04 07:59:33;;;;;;;5.47;2.22;;;;;;;12.72;100.00;100272.31;4411627;32;34992;-79
2022/10/04 08:02:31;;;;;;;7.00;1.70;;;;;;;12.76;100.00;100278.84;4420273;32;32189;-79
2022/10/04 08:05:28;;;;;;;;;;;;;;;12.89;100.00;100274.41;4424206;32;33608;-80
2022/10/04 08:08:21;;;;;;;;;;;;;;;13.40;100.00;100286.97;4422538;32;34290;-77
2022/10/04 08:11:13;;;;;;;;;;;;;;;13.52;100.00;100280.87;4422473;32;35002;-79
2022/10/04 08:14:03;;;;;;;;;;;;;;;13.65;100.00;100282.75;4419901;32;35001;-79
2022/10/04 08:16:59;;;;;;;;;;;;;;;13.64;99.38;100279.19;4421279;32;34756;-78
2022/10/04 08:20:04;;;;;;;;;;;;;;;13.47;99.64;100290.91;4425395;32;35614;-78
2022/10/04 08:23:00;;;;;;;;;;;;;;;13.90;100.00;100289.50;4422955;32;36069;-79
2022/10/04 08:25:48;;;;;;;;;;;;;;;14.01;96.41;100290.06;4422687;32;35984;-80
2022/10/04 08:31:51;;;;;;;;;;;;;;;13.68;97.35;100312.41;4424582;32;34548;-80
2022/10/04 08:34:51;;;;;;;;;;;;;;;13.06;100.00;100315.81;4426460;32;35553;-80
2022/10/04 08:37:38;;;;;;;;;;;;;;;13.43;99.74;100305.59;4422158;32;35758;-80
2022/10/04 08:40:25;;;;;;;;;;;;;;;13.99;96.79;100303.31;4423582;32;33823;-80
2022/10/04 08:43:15;;;;;;;;;;;;;;;14.41;94.94;100310.12;4423951;32;34319;-80
2022/10/04 08:46:05;;;;;;;;;;;;;;;14.33;93.98;100308.97;4426012;32;34955;-78
2022/10/04 08:49:00;;;;;;;;;;;;;;;14.25;93.10;100309.75;4433240;32;35619;-78
2022/10/04 08:51:52;;;;;;;;;;;;;;;14.36;92.80;100308.31;4424380;32;33554;-80
2022/10/04 08:54:56;;;;;;;;;;;;;;;14.58;91.29;100309.38;4424106;32;34684;-79
2022/10/04 08:57:54;;;;;;;;;;;;;;;14.84;89.81;100313.00;4421714;32;35303;-80
2022/10/04 09:00:44;;;;;;;;;;;;;;;14.54;90.96;100311.16;4431790;32;33418;-80
2022/10/04 09:03:34;;;;;;;;;;;;;;;14.75;91.68;100312.19;4422631;32;33589;-79
2022/10/04 09:06:24;;;;;;;;;;;;;;;14.74;88.48;100313.31;4422036;32;34897;-81
2022/10/04 09:09:19;;;;;;;;;;;;;;;14.83;87.86;100327.94;4422368;32;34919;-80
2022/10/04 09:12:05;;;;;;;;;;;;;;;14.59;89.98;100316.53;4417846;32;34770;-80
2022/10/04 09:15:05;;;;;;;;;;;;;;;15.02;86.22;100321.28;4423448;32;34322;-80
2022/10/04 09:18:10;;;;;;;;;;;;;;;14.44;87.82;100320.50;4426401;32;34348;-80
2022/10/04 09:21:00;;;;;;;;;;;;;;;14.34;88.87;100320.78;4423646;32;36178;-79
2022/10/04 09:23:55;;;;;;;;;;;;;;;14.04;89.15;100322.47;4399983;32;34544;-80
2022/10/04 09:26:42;;;;;;;;;;;;;;;14.59;89.07;100313.75;4423930;32;33974;-80
2022/10/04 09:29:37;;;;;;;;;;;;;;;14.65;87.98;100304.19;4426651;32;34677;-78
2022/10/04 09:32:33;;;;;;;;;;;;;;;15.10;86.36;100308.63;4434598;32;34140;-79
2022/10/04 09:35:37;;;;;;;;;;;;;;;14.38;87.57;100306.06;4434124;32;35728;-80
2022/10/04 09:38:43;;;;;;;;;;;;;;;14.90;nan;100315.59;4432366;32;34995;-79
2022/10/04 09:41:44;;;;;;;;;;;;;;;14.36;87.95;100313.03;4433925;32;35211;-80
2022/10/04 09:44:32;;;;;;;;;;;;;;;14.10;90.12;100308.22;4434701;32;35307;-80
2022/10/04 09:47:21;;;;;;;;;;;;;;;14.30;88.08;100309.59;4435514;32;34488;-80
2022/10/04 09:50:08;;;;;;;;;;;;;;;14.62;86.91;100307.59;4432969;32;34056;-80
2022/10/04 09:53:10;;;;;;;;;;;;;;;14.61;87.81;100314.25;4434154;32;35650;-80
2022/10/04 09:55:59;;;;;;;;;;;;;;;14.43;88.91;100327.16;4430370;32;34962;-79
2022/10/04 09:58:52;;;;;;;;;;;;;;;14.86;87.80;100332.00;4433266;32;35698;-80
2022/10/04 10:01:57;;;;;;;;;;;;;;;14.71;87.19;100333.25;4431152;32;34189;-80
2022/10/04 10:05:02;;;;;;;;;;;;;;;14.14;90.92;100335.97;4432767;32;34889;-79
2022/10/04 10:07:51;;;;;;;;;;;;;;;14.39;91.01;100338.00;4431878;32;35249;-80
2022/10/04 10:14:04;;;;;;;;;;;;;;;14.96;88.87;100337.19;4432510;32;34179;-79
2022/10/04 10:17:09;;;;;;;;;;;;;;;14.70;89.19;100333.59;4433784;32;35911;-80
2022/10/04 10:20:17;;;;;;;;;;;;;;;14.33;90.71;100336.53;4434550;32;36277;-78
2022/10/04 10:23:03;;;;;;;;;;;;;;;14.47;87.91;100335.59;4433207;32;35139;-80
2022/10/04 10:26:01;;;;;;;;;;;;;;;14.28;88.81;100344.12;4432674;32;35079;-80
2022/10/04 10:29:07;;;;;;;;;;;;;;;14.71;86.17;100347.03;4433403;32;35092;-80
2022/10/04 10:32:14;;;;;;;;;;;;;;;14.37;84.18;100343.03;4430672;32;35304;-78
2022/10/04 10:35:19;;;;;;;;;;;;;;;14.11;85.23;100353.13;4434269;32;35164;-79
2022/10/04 10:38:17;;;;;;;;;;;;;;;13.50;88.10;100348.09;4424944;32;34084;-80
2022/10/04 10:41:04;;;;;;;;;;;;;;;14.13;87.00;100350.88;4427740;32;35613;-78
2022/10/04 10:44:02;;;;;;;;;;;;;;;13.34;89.76;100355.09;4434213;32;34766;-79
2022/10/04 10:46:50;;;;;;;;;;;;;;;13.60;86.27;100351.72;4432551;32;34853;-79
2022/10/04 10:49:45;;;;;;;;;;;;;;;14.08;86.65;100356.53;4433378;32;34133;-79
2022/10/04 10:52:47;;;;;;;;;;;;;;;14.21;84.87;100350.09;4433067;32;34584;-79
2022/10/04 10:55:45;;;;;;;;;;;;;;;14.62;81.55;100351.72;4421488;32;35224;-78
2022/10/04 10:58:37;;;;;;;;;;;;;;;15.01;81.60;100350.03;4431919;32;34470;-79
2022/10/04 11:01:42;;;;;;;;;;;;;;;14.76;84.09;100346.88;4431974;32;34017;-80
2022/10/04 11:04:28;;;;;;;;;;;;;;;15.36;80.94;100355.53;4432911;32;35504;-80
2022/10/04 11:07:33;;;;;;;;;;;;;;;15.75;81.73;100354.56;4433956;32;34826;-78
2022/10/04 11:10:37;;;;;;;;;;;;;;;14.94;83.71;100355.19;4432351;32;35050;-80
2022/10/04 11:13:32;;;;;;;;;;;;;;;15.19;84.25;100350.84;4431532;32;34104;-79
2022/10/04 11:16:37;;;;;;;;;;;;;;;15.32;84.27;100349.06;4430338;32;35909;-80
2022/10/04 11:19:28;;;;;;;;;;;;;;;15.20;82.79;100346.94;4434070;32;35179;-80
2022/10/04 11:22:23;;;;;;;;;;;;;;;15.48;82.27;100342.72;4432700;32;35109;-79
2022/10/04 11:25:24;;;;;;;;;;;;;;;14.57;86.86;100340.84;4432208;32;34445;-80
2022/10/04 11:28:41;;;;;;;6.57;2.70;;;;;;;14.98;88.87;100350.66;4477556;31;970446;-76
2022/10/04 11:31:59;;;;;;;6.13;2.40;;;;;;;14.98;88.87;100350.66;4508666;31;32992;-78
2022/10/04 11:35:24;;;;;;;4.30;1.90;;;;;;;15.52;87.46;100345.63;4508289;31;33542;-77
2022/10/04 11:38:15;;;;;;;6.53;1.90;;;;;;;15.88;84.79;100344.44;4507600;31;34053;-78
2022/10/04 11:41:20;;;;;;;5.68;2.08;;;;;;;15.84;86.50;100346.25;4507089;31;33558;-77
2022/10/04 11:44:29;;;;;;;5.43;1.60;;;;;;;15.63;86.29;100346.09;4508055;31;33212;-77
2022/10/04 11:47:42;;;;;;;4.45;1.50;;;;;;;15.38;83.25;100351.31;4507291;31;33509;-79
2022/10/04 11:50:46;;;;;;;4.28;1.67;;;;;;;15.74;83.34;100342.69;4496422;31;33657;-76
2022/10/04 11:54:02;;;;;;;6.20;1.83;;;;;;;15.08;85.06;100347.56;4507306;31;33732;-78
2022/10/04 11:57:11;;;;;;;3.80;1.62;;;;;;;15.17;85.21;100347.56;4508255;31;33169;-76
2022/10/04 12:00:15;;;;;;;5.43;1.80;;;;;;;14.58;87.04;100348.00;4507545;31;33730;-78
2022/10/04 12:03:22;;;;;;;4.30;1.85;;;;;;;15.30;83.89;100352.13;4508141;31;33838;-77
2022/10/04 12:06:38;;;;;;;5.60;1.70;;;;;;;14.90;84.79;100354.22;4490776;31;33558;-77
2022/10/04 12:09:44;;;;;;;5.95;2.60;;;;;;;15.19;82.58;100359.13;4508547;31;33322;-76
2022/10/04 12:13:05;;;;;;;4.78;1.60;;;;;;;15.62;80.28;100364.59;4495963;31;34410;-76
2022/10/04 12:16:15;;;;;;;4.20;1.80;;;;;;;15.30;80.67;100347.41;4507684;31;34902;-79
2022/10/04 12:19:14;;;;;;;5.18;1.95;;;;;;;15.41;79.59;100364.47;4507586;31;34518;-77
2022/10/04 12:22:21;;;;;;;5.72;2.25;;;;;;;15.26;80.83;100357.50;4507567;31;33197;-77
2022/10/04 12:25:31;;;;;;;4.72;2.33;;;;;;;14.35;88.14;100378.38;4495763;31;33434;-77
2022/10/04 12:28:46;;;;;;;6.73;2.50;;;;;;;14.28;87.82;100367.00;4489776;31;34076;-78
2022/10/04 12:31:40;;;;;;;5.45;2.40;;;;;;;14.33;90.19;100368.81;4493477;31;33719;-76
2022/10/04 12:34:37;;;;;;;4.97;2.55;;;;;;;14.03;91.43;100364.91;4496945;31;34183;-80
2022/10/04 12:37:29;;;;;;;4.40;1.70;;;;;;;14.15;93.53;100362.41;4493799;31;33554;-84
2022/10/04 12:40:32;;;;;;;5.30;2.17;;;;;;;14.50;93.08;100363.34;4490111;31;34697;-84
2022/10/04 12:44:01;;;;;;;5.30;2.10;;;;;;;14.91;92.72;100366.88;4484717;31;33711;-84
2022/10/04 12:47:20;;;;;;;4.80;2.40;;;;;;;14.26;94.86;100372.03;4460241;31;33365;-83
2022/10/04 12:50:38;;;;;;;4.65;2.15;;;;;;;14.35;96.92;100367.34;4479843;31;34639;-83
2022/10/04 12:53:52;;;;;;;5.72;2.05;;;;;;;15.06;93.45;100371.94;4481829;31;33896;-83
2022/10/04 12:56:49;;;;;;;6.07;2.60;;;;;;;15.25;92.00;100368.84;4463194;31;33590;-80
2022/10/04 12:59:58;;;;;;;5.03;2.62;;;;;;;14.90;92.55;100365.25;4489626;31;33289;-79
2022/10/04 13:03:24;;;;;;;4.85;2.20;;;;;;;15.18;91.85;100377.62;4494170;31;33327;-81
2022/10/04 13:06:58;;;;;;;4.30;1.92;;;;;;;15.43;90.40;100369.69;4484849;31;33875;-81
2022/10/04 13:10:13;;;;;;;4.40;1.80;;;;;;;16.12;86.23;100361.28;4469540;31;35326;-80
2022/10/04 13:13:33;;;;;;;4.57;1.90;;;;;;;15.44;86.93;100368.53;4487137;31;33733;-80
2022/10/04 13:16:49;;;;;;;6.62;3.70;;;;;;;15.71;86.06;100357.16;4480614;31;34335;-80
2022/10/04 13:20:04;;;;;;;4.35;1.60;;;;;;;15.92;84.61;100359.22;4480752;31;33964;-81
2022/10/04 13:23:18;;;;;;;4.97;1.85;;;;;;;15.92;82.60;100350.94;4479135;31;33671;-81
2022/10/04 13:26:28;;;;;;;4.37;1.80;;;;;;;17.68;74.29;100342.03;4485955;31;33816;-80
2022/10/04 13:29:34;;;;;;;3.90;2.20;;;;;;;16.71;72.67;100349.44;4479963;31;33760;-81
2022/10/04 13:32:29;;;;;;;4.37;1.25;;;;;;;17.16;71.47;100348.00;4480687;31;34042;-80
2022/10/04 13:35:27;;;;;;;4.53;1.62;;;;;;;17.54;70.71;100354.22;4469813;31;32294;-80
2022/10/04 13:39:00;;;;;;;4.68;1.70;;;;;;;18.16;69.40;100357.19;4482744;31;32815;-79
2022/10/04 13:42:02;;;;;;;4.80;1.75;;;;;;;18.76;66.97;100347.28;4469920;31;34817;-80
2022/10/04 13:45:34;;;;;;;3.00;1.55;;;;;;;17.02;73.98;100348.31;4485071;31;34128;-80
2022/10/04 13:48:36;;;;;;;4.65;1.37;;;;;;;17.88;70.78;100354.25;4470889;31;33629;-81
2022/10/04 13:51:30;;;;;;;3.97;1.70;;;;;;;18.10;68.27;100364.09;4482720;31;32249;-80
2022/10/04 13:58:23;;;;;;;1.77;1.10;;;;;;;17.31;71.81;100355.72;4466338;31;33693;-80
2022/10/04 14:05:17;;;;;;;3.33;1.45;;;;;;;17.19;70.77;100361.19;4488645;31;32238;-79
2022/10/04 14:08:27;;;;;;;4.45;1.60;;;;;;;16.71;74.05;100368.81;4483263;31;33610;-79
2022/10/04 14:11:37;;;;;;;3.92;1.37;;;;;;;17.42;73.19;100378.28;4479848;31;36613;-80
2022/10/04 14:15:03;;;;;;;4.32;1.60;;;;;;;17.94;69.27;100367.53;4486687;31;33749;-81
2022/10/04 14:18:26;;;;;;;2.87;1.20;;;;;;;16.25;75.22;100384.34;4487126;31;34115;-79
2022/10/04 14:21:56;;;;;;;2.60;1.10;;;;;;;17.34;70.78;100366.13;4462067;31;33812;-79